createdAt,value
2019-02-19T00:01:59.112Z,3.80
2019-02-19T00:04:48.954Z,3.80
2019-02-19T00:07:21.222Z,3.70
2019-02-19T00:09:58.729Z,3.70
2019-02-19T00:12:43.240Z,3.60
2019-02-19T00:15:31.966Z,3.70
2019-02-19T00:18:23.914Z,3.50
2019-02-19T00:20:54.104Z,3.50
2019-02-19T00:23:45.204Z,3.50
2019-02-19T00:29:32.354Z,3.40
2019-02-19T00:32:28.022Z,3.30
2019-02-19T00:34:37.361Z,3.20
2019-02-19T00:37:15.717Z,2.90
2019-02-19T00:39:57.669Z,2.80
2019-02-19T00:42:34.892Z,2.90
2019-02-19T00:45:16.749Z,3.00
2019-02-19T00:47:41.180Z,3.40
2019-02-19T00:50:23.136Z,3.30
2019-02-19T00:53:00.677Z,3.30
2019-02-19T00:55:42.365Z,3.50
2019-02-19T00:58:42.672Z,3.50
2019-02-19T01:01:20.055Z,3.60
2019-02-19T01:03:58.801Z,3.60
2019-02-19T01:06:31.863Z,3.40
2019-02-19T01:09:07.829Z,3.50
2019-02-19T01:11:48.456Z,3.50
2019-02-19T01:14:29.275Z,3.30
2019-02-19T01:17:05.211Z,3.30
2019-02-19T01:19:47.218Z,3.20
2019-02-19T01:22:07.125Z,3.30
2019-02-19T01:24:46.261Z,3.20
2019-02-19T01:27:26.718Z,3.30
2019-02-19T01:30:16.476Z,3.30
2019-02-19T01:32:52.279Z,3.00
2019-02-19T01:35:32.134Z,2.80
2019-02-19T01:38:10.210Z,2.80
2019-02-19T01:40:47.475Z,2.80
2019-02-19T01:43:39.831Z,3.10
2019-02-19T01:46:14.023Z,2.80
2019-02-19T01:48:53.840Z,2.90
2019-02-19T01:51:35.588Z,2.90
2019-02-19T01:54:18.200Z,3.00
2019-02-19T01:56:56.350Z,3.00
2019-02-19T01:59:37.159Z,3.00
2019-02-19T02:02:18.359Z,2.90
2019-02-19T02:04:59.730Z,3.10
2019-02-19T02:07:42.642Z,2.70
2019-02-19T02:10:28.065Z,2.70
2019-02-19T02:13:30.533Z,2.80
2019-02-19T02:16:29.843Z,2.90
2019-02-19T02:18:58.354Z,2.70
2019-02-19T02:23:09.743Z,2.50
2019-02-19T02:24:43.283Z,2.40
2019-02-19T02:27:10.933Z,2.10
2019-02-19T02:32:18.105Z,2.20
2019-02-19T02:35:11.352Z,2.30
2019-02-19T02:38:43.504Z,2.30
2019-02-19T02:43:16.480Z,2.20
2019-02-19T02:45:53.570Z,2.30
2019-02-19T02:49:22.450Z,2.30
2019-02-19T02:51:08.169Z,2.20
2019-02-19T02:54:04.811Z,2.30
2019-02-19T02:56:45.049Z,2.30
2019-02-19T02:59:25.513Z,2.10
2019-02-19T03:01:53.869Z,1.80
2019-02-19T03:04:47.484Z,1.80
2019-02-19T03:07:39.524Z,1.80
2019-02-19T03:10:10.331Z,1.90
2019-02-19T03:16:16.699Z,1.80
2019-02-19T03:18:47.913Z,1.90
2019-02-19T03:21:28.927Z,1.90
2019-02-19T03:24:14.549Z,1.80
2019-02-19T03:27:03.641Z,1.60
2019-02-19T03:29:42.395Z,2.00
2019-02-19T03:32:30.236Z,1.80
2019-02-19T03:35:04.958Z,1.90
2019-02-19T03:37:41.324Z,1.90
2019-02-19T03:40:21.864Z,1.90
2019-02-19T03:43:01.120Z,1.80
2019-02-19T03:45:42.707Z,1.70
2019-02-19T03:48:23.349Z,1.60
2019-02-19T03:51:00.908Z,1.60
2019-02-19T03:53:48.059Z,1.70
2019-02-19T03:56:27.237Z,2.00
2019-02-19T03:59:14.966Z,2.10
2019-02-19T04:01:51.324Z,1.80
2019-02-19T04:04:28.844Z,1.60
2019-02-19T04:07:17.678Z,1.50
2019-02-19T04:09:54.665Z,1.60
2019-02-19T04:12:32.201Z,1.40
2019-02-19T04:15:21.723Z,1.40
2019-02-19T04:17:53.658Z,1.40
2019-02-19T04:20:33.890Z,1.30
2019-02-19T04:23:18.335Z,1.30
2019-02-19T04:26:00.841Z,1.40
2019-02-19T04:28:38.502Z,1.40
2019-02-19T04:31:20.216Z,1.30
2019-02-19T04:34:03.454Z,1.60
2019-02-19T04:36:52.315Z,1.70
2019-02-19T04:40:06.775Z,1.60
2019-02-19T04:42:49.898Z,1.50
2019-02-19T04:45:28.806Z,1.30
2019-02-19T04:48:01.605Z,1.40
2019-02-19T04:54:58.718Z,1.60
2019-02-19T04:57:00.822Z,1.70
2019-02-19T04:58:59.850Z,1.70
2019-02-19T05:01:39.680Z,1.60
2019-02-19T05:06:59.734Z,2.00
2019-02-19T05:09:40.225Z,2.10
2019-02-19T05:13:05.356Z,1.90
2019-02-19T05:15:35.801Z,2.00
2019-02-19T05:18:24.816Z,1.90
2019-02-19T05:20:35.733Z,1.90
2019-02-19T05:23:39.780Z,1.80
2019-02-19T05:25:55.945Z,1.60
2019-02-19T05:28:29.847Z,1.50
2019-02-19T05:31:04.811Z,1.50
2019-02-19T05:33:43.832Z,1.60
2019-02-19T05:38:59.917Z,1.70
2019-02-19T05:41:30.119Z,1.50
2019-02-19T05:44:27.980Z,1.30
2019-02-19T05:47:10.211Z,1.30
2019-02-19T05:49:48.593Z,1.30
2019-02-19T05:52:17.672Z,1.30
2019-02-19T05:54:59.129Z,1.60
2019-02-19T05:57:41.117Z,1.40
2019-02-19T06:02:36.836Z,1.40
2019-02-19T06:03:03.230Z,1.30
2019-02-19T06:05:43.692Z,1.10
2019-02-19T06:08:20.148Z,1.10
2019-02-19T06:11:41.817Z,1.00
2019-02-19T06:14:09.298Z,1.00
2019-02-19T06:16:58.255Z,0.80
2019-02-19T06:19:25.182Z,0.70
2019-02-19T06:21:55.514Z,0.70
2019-02-19T06:27:41.350Z,0.70
2019-02-19T06:30:18.757Z,0.60
2019-02-19T06:33:10.248Z,0.50
2019-02-19T06:35:59.277Z,0.40
2019-02-19T06:38:37.435Z,0.30
2019-02-19T06:41:07.475Z,0.30
2019-02-19T06:43:40.421Z,0.40
2019-02-19T06:46:19.842Z,0.50
2019-02-19T06:49:05.481Z,0.50
2019-02-19T06:52:00.812Z,0.40
2019-02-19T06:54:48.549Z,0.50
2019-02-19T06:57:35.340Z,0.60
2019-02-19T07:00:26.912Z,0.50
2019-02-19T07:03:44.316Z,0.70
2019-02-19T07:06:36.909Z,0.70
2019-02-19T07:09:07.907Z,0.90
2019-02-19T07:11:46.187Z,1.30
2019-02-19T07:14:38.816Z,1.40
2019-02-19T07:17:29.557Z,1.20
2019-02-19T07:20:20.040Z,1.00
2019-02-19T07:23:08.946Z,0.90
2019-02-19T07:26:00.656Z,1.00
2019-02-19T07:28:48.727Z,1.00
2019-02-19T07:31:39.542Z,1.00
2019-02-19T07:34:32.864Z,1.00
2019-02-19T07:37:16.619Z,1.00
2019-02-19T07:40:17.757Z,1.10
2019-02-19T07:43:00.960Z,1.50
2019-02-19T07:45:53.331Z,1.50
2019-02-19T07:48:36.645Z,1.60
2019-02-19T07:51:25.928Z,1.60
2019-02-19T07:54:14.421Z,1.60
2019-02-19T07:57:02.024Z,1.50
2019-02-19T07:59:56.866Z,1.70
2019-02-19T08:02:45.728Z,1.70
2019-02-19T08:05:36.545Z,1.90
2019-02-19T08:08:24.308Z,1.70
2019-02-19T08:11:11.533Z,1.80
2019-02-19T08:14:00.731Z,2.20
2019-02-19T08:16:50.212Z,2.30
2019-02-19T08:20:16.020Z,2.50
2019-02-19T08:23:08.890Z,2.60
2019-02-19T08:25:25.686Z,2.70
2019-02-19T08:28:12.738Z,3.00
2019-02-19T08:31:07.591Z,3.10
2019-02-19T08:37:00.953Z,3.10
2019-02-19T08:39:35.602Z,3.30
2019-02-19T08:42:16.760Z,3.50
2019-02-19T08:44:56.814Z,3.60
2019-02-19T08:47:28.862Z,3.80
2019-02-19T08:50:26.559Z,3.90
2019-02-19T08:53:26.437Z,4.00
2019-02-19T08:55:59.981Z,4.10
2019-02-19T08:59:01.976Z,4.30
2019-02-19T09:01:24.457Z,4.50
2019-02-19T09:04:19.877Z,4.60
2019-02-19T09:06:50.117Z,4.60
2019-02-19T09:09:31.151Z,5.10
2019-02-19T09:15:42.728Z,5.70
2019-02-19T09:18:09.030Z,6.40
2019-02-19T09:20:56.487Z,6.70
2019-02-19T09:23:56.277Z,6.90
2019-02-19T09:26:53.827Z,6.90
2019-02-19T09:32:47.016Z,7.30
2019-02-19T09:35:36.669Z,6.80
2019-02-19T09:38:26.045Z,7.00
2019-02-19T09:41:16.828Z,6.70
2019-02-19T09:44:04.511Z,6.10
2019-02-19T09:46:56.320Z,6.10
2019-02-19T09:49:37.946Z,6.10
2019-02-19T09:52:18.347Z,6.00
2019-02-19T10:06:27.049Z,6.50
2019-02-19T10:09:03.760Z,8.70
2019-02-19T10:11:49.350Z,9.60
2019-02-19T10:14:31.903Z,11.30
2019-02-19T10:19:49.200Z,9.40
2019-02-19T10:22:20.792Z,9.20
2019-02-19T10:25:02.107Z,8.40
2019-02-19T10:28:07.384Z,8.40
2019-02-19T10:30:37.906Z,8.30
2019-02-19T10:38:41.058Z,7.70
2019-02-19T10:41:12.398Z,7.80
2019-02-19T10:43:52.757Z,8.10
2019-02-19T10:52:02.439Z,8.50
2019-02-19T10:54:38.245Z,8.50
2019-02-19T10:59:40.917Z,8.90
2019-02-19T11:02:22.848Z,9.20
2019-02-19T11:05:05.204Z,9.00
2019-02-19T11:07:28.132Z,8.70
2019-02-19T11:10:17.076Z,8.70
2019-02-19T11:12:47.902Z,8.70
2019-02-19T11:15:17.741Z,9.00
2019-02-19T11:17:59.035Z,9.10
2019-02-19T11:20:44.885Z,9.30
2019-02-19T11:23:20.537Z,9.40
2019-02-19T11:25:56.874Z,9.10
2019-02-19T11:28:52.395Z,9.20
2019-02-19T11:31:27.141Z,9.30
2019-02-19T11:33:57.087Z,9.60
2019-02-19T11:36:27.119Z,9.40
2019-02-19T11:39:15.250Z,9.40
2019-02-19T11:42:04.857Z,9.40
2019-02-19T11:44:37.390Z,10.00
2019-02-19T11:47:26.602Z,9.80
2019-02-19T11:50:11.514Z,9.40
2019-02-19T11:53:01.799Z,9.10
2019-02-19T11:55:36.505Z,9.00
2019-02-19T11:58:27.619Z,8.90
2019-02-19T12:01:12.727Z,8.60
2019-02-19T12:05:51.348Z,8.60
2019-02-19T12:08:38.851Z,8.70
2019-02-19T12:11:12.291Z,9.50
2019-02-19T12:13:42.603Z,11.00
2019-02-19T12:16:16.056Z,9.80
2019-02-19T12:19:07.498Z,9.50
2019-02-19T12:21:56.502Z,9.60
2019-02-19T12:24:45.683Z,9.90
2019-02-19T12:27:23.364Z,9.80
2019-02-19T12:30:14.543Z,9.70
2019-02-19T12:32:41.467Z,9.60
2019-02-19T12:35:38.074Z,9.30
2019-02-19T12:37:52.720Z,9.00
2019-02-19T12:40:22.936Z,8.90
2019-02-19T12:42:52.931Z,8.80
2019-02-19T12:45:51.277Z,8.80
2019-02-19T12:48:30.303Z,8.70
2019-02-19T12:51:00.963Z,8.70
2019-02-19T12:53:39.478Z,8.80
2019-02-19T12:56:32.175Z,8.90
2019-02-19T12:59:02.391Z,9.00
2019-02-19T13:01:58.248Z,9.40
2019-02-19T13:04:29.274Z,9.50
2019-02-19T13:07:09.868Z,9.70
2019-02-19T13:09:48.804Z,9.50
2019-02-19T13:12:18.788Z,9.30
2019-02-19T13:14:51.209Z,9.10
2019-02-19T13:17:37.770Z,9.00
2019-02-19T13:20:58.269Z,9.00
2019-02-19T13:22:38.862Z,9.10
2019-02-19T13:25:16.962Z,9.50
2019-02-19T13:27:46.937Z,9.80
2019-02-19T13:30:28.766Z,10.00
2019-02-19T13:33:13.689Z,10.20
2019-02-19T13:35:39.553Z,10.40
2019-02-19T13:38:11.692Z,10.60
2019-02-19T13:40:51.801Z,10.70
2019-02-19T13:43:39.548Z,10.90
2019-02-19T13:46:18.638Z,10.90
2019-02-19T13:48:58.666Z,10.90
2019-02-19T13:51:38.794Z,10.80
2019-02-19T13:54:23.785Z,10.80
2019-02-19T13:57:01.116Z,10.70
2019-02-19T13:59:42.734Z,10.50
2019-02-19T14:02:26.288Z,10.50
2019-02-19T14:05:05.460Z,10.70
2019-02-19T14:07:44.548Z,10.80
2019-02-19T14:10:26.010Z,10.60
2019-02-19T14:13:05.256Z,10.40
2019-02-19T14:17:32.250Z,10.40
2019-02-19T14:19:05.955Z,10.50
2019-02-19T14:22:25.748Z,10.30
2019-02-19T14:26:00.698Z,10.40
2019-02-19T14:28:27.569Z,10.30
2019-02-19T14:31:28.088Z,10.20
2019-02-19T14:34:36.995Z,10.30
2019-02-19T14:37:56.325Z,10.20
2019-02-19T14:41:22.711Z,10.30
2019-02-19T14:44:11.467Z,10.30
2019-02-19T14:46:59.262Z,10.10
2019-02-19T14:49:56.175Z,10.00
2019-02-19T14:53:04.275Z,10.00
2019-02-19T14:56:25.380Z,9.90
2019-02-19T14:59:36.554Z,9.90
2019-02-19T15:02:43.661Z,9.90
2019-02-19T15:05:44.365Z,10.00
2019-02-19T15:08:30.497Z,9.80
2019-02-19T15:11:30.260Z,9.90
2019-02-19T15:14:19.970Z,9.80
2019-02-19T15:20:58.580Z,9.80
2019-02-19T15:22:56.510Z,9.80
2019-02-19T15:26:05.332Z,9.80
2019-02-19T15:29:34.422Z,10.00
2019-02-19T15:32:36.416Z,10.00
2019-02-19T15:35:25.816Z,9.90
2019-02-19T15:39:01.197Z,9.80
2019-02-19T15:41:36.887Z,9.80
2019-02-19T15:44:43.584Z,9.80
2019-02-19T15:48:11.321Z,9.90
2019-02-19T15:50:55.028Z,9.70
2019-02-19T15:54:07.759Z,9.70
2019-02-19T15:57:41.765Z,9.60
2019-02-19T16:00:46.165Z,9.60
2019-02-19T16:03:44.551Z,9.60
2019-02-19T16:06:26.333Z,9.40
2019-02-19T16:09:09.499Z,9.30
2019-02-19T16:15:16.366Z,9.10
2019-02-19T16:19:09.685Z,9.10
2019-02-19T16:21:48.164Z,9.20
2019-02-19T16:24:52.827Z,9.00
2019-02-19T16:27:37.077Z,8.90
2019-02-19T16:31:02.235Z,8.80
2019-02-19T16:34:05.683Z,8.70
2019-02-19T16:36:53.114Z,8.60
2019-02-19T16:40:30.706Z,8.40
2019-02-19T16:43:08.721Z,8.30
2019-02-19T16:46:11.798Z,8.20
2019-02-19T16:48:53.410Z,8.10
2019-02-19T16:51:47.658Z,8.20
2019-02-19T16:54:37.124Z,8.30
2019-02-19T16:58:09.935Z,8.20
2019-02-19T17:01:16.754Z,8.20
2019-02-19T17:03:56.442Z,8.00
2019-02-19T17:09:54.343Z,7.90
2019-02-19T17:15:57.565Z,7.90
2019-02-19T17:18:51.175Z,7.90
2019-02-19T17:21:58.031Z,7.90
2019-02-19T17:25:33.307Z,7.80
2019-02-19T17:28:43.040Z,7.80
2019-02-19T17:32:24.655Z,7.60
2019-02-19T17:34:55.046Z,7.50
2019-02-19T17:37:55.180Z,7.60
2019-02-19T17:41:06.425Z,7.40
2019-02-19T17:46:56.730Z,7.20
2019-02-19T17:49:57.638Z,7.20
2019-02-19T17:52:54.039Z,7.10
2019-02-19T17:55:50.327Z,7.10
2019-02-19T17:58:31.211Z,7.10
2019-02-19T18:01:25.183Z,6.90
2019-02-19T18:04:15.235Z,6.80
2019-02-19T18:07:04.980Z,6.90
2019-02-19T18:10:18.753Z,6.90
2019-02-19T18:13:08.388Z,6.80
2019-02-19T18:16:27.102Z,6.80
2019-02-19T18:19:25.717Z,7.10
2019-02-19T18:22:03.385Z,7.10
2019-02-19T18:24:50.064Z,7.00
2019-02-19T18:27:24.644Z,7.10
2019-02-19T18:30:17.878Z,7.10
2019-02-19T18:33:10.530Z,7.10
2019-02-19T18:35:30.101Z,6.90
2019-02-19T18:38:02.866Z,6.90
2019-02-19T18:40:34.213Z,6.90
2019-02-19T18:43:04.635Z,6.80
2019-02-19T18:45:58.132Z,7.00
2019-02-19T18:48:56.641Z,6.90
2019-02-19T18:51:31.811Z,6.80
2019-02-19T18:54:10.569Z,6.80
2019-02-19T18:56:42.594Z,6.70
2019-02-19T18:59:14.936Z,6.60
2019-02-19T19:01:50.456Z,6.70
2019-02-19T19:04:23.054Z,6.70
2019-02-19T19:06:55.597Z,6.80
2019-02-19T19:09:30.836Z,6.70
2019-02-19T19:12:09.525Z,6.70
2019-02-19T19:14:39.909Z,6.70
2019-02-19T19:17:17.631Z,6.80
2019-02-19T19:20:02.458Z,6.70
2019-02-19T19:22:39.240Z,6.60
2019-02-19T19:25:39.035Z,6.60
2019-02-19T19:28:30.143Z,6.50
2019-02-19T19:31:20.132Z,6.60
2019-02-19T19:34:02.435Z,6.50
2019-02-19T19:36:55.241Z,6.50
2019-02-19T19:39:45.622Z,6.50
2019-02-19T19:42:27.694Z,6.40
2019-02-19T19:45:08.146Z,6.50
2019-02-19T19:47:47.602Z,6.50
2019-02-19T19:50:51.215Z,6.40
2019-02-19T19:54:56.768Z,6.50
2019-02-19T19:55:33.842Z,6.50
2019-02-19T19:58:04.172Z,6.40
2019-02-19T20:01:00.684Z,6.40
2019-02-19T20:03:35.074Z,6.40
2019-02-19T20:06:34.886Z,6.30
2019-02-19T20:09:05.887Z,6.40
2019-02-19T20:11:55.269Z,6.40
2019-02-19T20:14:36.220Z,6.40
2019-02-19T20:17:06.751Z,6.30
2019-02-19T20:19:54.358Z,6.30
2019-02-19T20:22:42.332Z,6.40
2019-02-19T20:25:23.919Z,6.40
2019-02-19T20:28:08.157Z,6.40
2019-02-19T20:30:55.870Z,6.40
2019-02-19T20:33:40.644Z,6.30
2019-02-19T20:36:23.970Z,6.30
2019-02-19T20:39:07.334Z,6.30
2019-02-19T20:41:53.298Z,6.40
2019-02-19T20:44:41.001Z,6.30
2019-02-19T20:47:22.616Z,6.30
2019-02-19T20:50:03.015Z,6.40
2019-02-19T20:52:44.309Z,6.30
2019-02-19T20:55:37.141Z,6.30
2019-02-19T20:58:14.189Z,6.30
2019-02-19T21:01:03.412Z,6.10
2019-02-19T21:03:35.957Z,6.10
2019-02-19T21:07:19.763Z,6.00
2019-02-19T21:08:43.554Z,6.10
2019-02-19T21:11:19.515Z,6.00
2019-02-19T21:13:53.520Z,6.00
2019-02-19T21:16:34.308Z,5.90
2019-02-19T21:19:14.868Z,6.00
2019-02-19T21:22:07.534Z,6.10
2019-02-19T21:24:56.457Z,6.20
2019-02-19T21:27:40.238Z,6.20
2019-02-19T21:30:27.867Z,6.30
2019-02-19T21:33:12.203Z,6.30
2019-02-19T21:36:01.498Z,6.30
2019-02-19T21:38:40.992Z,6.40
2019-02-19T21:41:25.456Z,6.50
2019-02-19T21:44:07.355Z,6.50
2019-02-19T21:46:46.603Z,6.40
2019-02-19T21:49:35.692Z,6.40
2019-02-19T21:52:17.024Z,6.30
2019-02-19T21:54:57.795Z,6.30
2019-02-19T21:57:37.235Z,6.20
2019-02-19T22:00:17.443Z,6.10
2019-02-19T22:02:52.735Z,6.10
2019-02-19T22:05:31.562Z,6.20
2019-02-19T22:08:02.333Z,6.10
2019-02-19T22:10:32.852Z,6.10
2019-02-19T22:13:02.961Z,6.10
2019-02-19T22:15:32.784Z,6.10
2019-02-19T22:18:05.560Z,6.10
2019-02-19T22:21:02.888Z,6.10
2019-02-19T22:23:33.378Z,6.10
2019-02-19T22:26:09.258Z,6.10
2019-02-19T22:28:54.055Z,6.20
2019-02-19T22:33:18.987Z,6.20
2019-02-19T22:33:58.308Z,6.10
2019-02-19T22:36:43.208Z,6.00
2019-02-19T22:39:43.684Z,6.00
2019-02-19T22:42:06.946Z,6.00
2019-02-19T22:44:48.324Z,6.00
2019-02-19T22:47:18.676Z,6.00
2019-02-19T22:49:49.035Z,5.90
2019-02-19T22:52:18.977Z,6.00
2019-02-19T22:55:15.534Z,6.00
2019-02-19T22:57:45.750Z,6.10
2019-02-19T23:00:39.364Z,6.20
2019-02-19T23:06:18.499Z,6.20
2019-02-19T23:08:59.146Z,6.10
2019-02-19T23:11:38.616Z,6.10
2019-02-19T23:14:11.568Z,6.00
2019-02-19T23:16:50.452Z,6.10
2019-02-19T23:19:22.167Z,5.90
2019-02-19T23:22:02.097Z,5.90
2019-02-19T23:24:43.795Z,5.90
2019-02-19T23:27:24.755Z,5.80
2019-02-19T23:30:15.194Z,5.70
2019-02-19T23:32:54.201Z,5.80
2019-02-19T23:35:36.797Z,5.80
2019-02-19T23:38:10.112Z,5.80
2019-02-19T23:40:50.867Z,5.70
2019-02-19T23:43:30.110Z,5.60
2019-02-19T23:46:12.010Z,5.70
2019-02-19T23:48:53.271Z,5.60
2019-02-19T23:51:33.979Z,5.60
2019-02-19T23:54:14.311Z,5.70
2019-02-19T23:56:56.158Z,5.60
2019-02-19T23:59:35.443Z,5.60
